Sabinsville, Pennsylvania
Current Conditions -  °F | °C
As of 7:35 PM on Friday 21 Nov 2014 (Local Time) from KN38 Reporting Station
Broken Clouds Broken Clouds  
Wind Chill: 11°   Ceiling: 3600
Heat Index: 21°   Visibility: 10mi
Dew Point: 10°   Wind: 9mph
Humidity: 63%   Direction: 230°SW
Pressure: 30.39"   Gusts: NA
Location:  41.87°N, 77.52°W
Report Text: KN38 220035Z AUTO 23008KT 10SM SCT026 BKN036 M06/M12 A3039 RMK AO2
Loading
Personal Weather Stations






























Interactive Weather Map New forecast layout! Learn more

10-Day Weather Forecast

Advertisements
Track Severe Weather on mobile